sensor_id;sensor_type;location;lat;lon;timestamp;P1;durP1;ratioP1;P2;durP2;ratioP2
8861;SDS011;4799;50.996;4.754;2023-06-10T00:01:44;7.90;;;7.20;;
8861;SDS011;4799;50.996;4.754;2023-06-10T00:04:13;7.53;;;6.93;;
8861;SDS011;4799;50.996;4.754;2023-06-10T00:06:42;7.67;;;7.07;;
8861;SDS011;4799;50.996;4.754;2023-06-10T00:09:09;7.80;;;7.10;;
8861;SDS011;4799;50.996;4.754;2023-06-10T00:11:39;7.93;;;7.23;;
8861;SDS011;4799;50.996;4.754;2023-06-10T00:14:05;7.83;;;7.13;;
8861;SDS011;4799;50.996;4.754;2023-06-10T00:16:32;7.17;;;6.60;;
8861;SDS011;4799;50.996;4.754;2023-06-10T00:19:02;8.33;;;7.63;;
8861;SDS011;4799;50.996;4.754;2023-06-10T00:21:32;8.00;;;7.40;;
8861;SDS011;4799;50.996;4.754;2023-06-10T00:24:05;8.10;;;7.33;;
8861;SDS011;4799;50.996;4.754;2023-06-10T00:26:34;8.10;;;7.40;;
8861;SDS011;4799;50.996;4.754;2023-06-10T00:29:00;8.20;;;7.43;;
8861;SDS011;4799;50.996;4.754;2023-06-10T00:31:26;7.77;;;7.13;;
8861;SDS011;4799;50.996;4.754;2023-06-10T00:33:52;7.83;;;7.23;;
8861;SDS011;4799;50.996;4.754;2023-06-10T00:36:18;8.03;;;7.23;;
8861;SDS011;4799;50.996;4.754;2023-06-10T00:38:44;8.60;;;7.80;;
8861;SDS011;4799;50.996;4.754;2023-06-10T00:41:09;8.63;;;7.93;;
8861;SDS011;4799;50.996;4.754;2023-06-10T00:43:35;8.33;;;7.63;;
8861;SDS011;4799;50.996;4.754;2023-06-10T00:46:01;8.67;;;7.90;;
8861;SDS011;4799;50.996;4.754;2023-06-10T00:48:27;8.50;;;7.73;;
8861;SDS011;4799;50.996;4.754;2023-06-10T00:50:53;8.30;;;7.63;;
8861;SDS011;4799;50.996;4.754;2023-06-10T00:53:19;7.93;;;7.33;;
8861;SDS011;4799;50.996;4.754;2023-06-10T00:55:48;8.97;;;8.13;;
8861;SDS011;4799;50.996;4.754;2023-06-10T00:58:13;8.80;;;8.07;;
8861;SDS011;4799;50.996;4.754;2023-06-10T01:00:40;9.97;;;8.00;;
8861;SDS011;4799;50.996;4.754;2023-06-10T01:03:06;8.30;;;7.70;;
8861;SDS011;4799;50.996;4.754;2023-06-10T01:05:34;8.43;;;7.73;;
8861;SDS011;4799;50.996;4.754;2023-06-10T01:10:51;8.53;;;7.83;;
8861;SDS011;4799;50.996;4.754;2023-06-10T01:13:21;8.90;;;8.20;;
8861;SDS011;4799;50.996;4.754;2023-06-10T01:15:54;8.60;;;7.80;;
8861;SDS011;4799;50.996;4.754;2023-06-10T01:18:21;9.50;;;7.77;;
8861;SDS011;4799;50.996;4.754;2023-06-10T01:20:47;8.40;;;7.80;;
8861;SDS011;4799;50.996;4.754;2023-06-10T01:23:14;8.40;;;7.77;;
8861;SDS011;4799;50.996;4.754;2023-06-10T01:25:52;8.93;;;8.20;;
8861;SDS011;4799;50.996;4.754;2023-06-10T01:28:27;9.20;;;8.47;;
8861;SDS011;4799;50.996;4.754;2023-06-10T01:33:45;8.10;;;7.40;;
8861;SDS011;4799;50.996;4.754;2023-06-10T01:36:13;9.07;;;8.40;;
8861;SDS011;4799;50.996;4.754;2023-06-10T01:38:44;9.20;;;8.50;;
8861;SDS011;4799;50.996;4.754;2023-06-10T01:41:16;9.37;;;8.57;;
8861;SDS011;4799;50.996;4.754;2023-06-10T01:43:43;9.00;;;8.20;;
8861;SDS011;4799;50.996;4.754;2023-06-10T01:46:09;9.37;;;8.57;;
8861;SDS011;4799;50.996;4.754;2023-06-10T01:48:36;9.57;;;8.57;;
8861;SDS011;4799;50.996;4.754;2023-06-10T01:51:03;9.40;;;8.50;;
8861;SDS011;4799;50.996;4.754;2023-06-10T01:53:29;9.50;;;8.70;;
8861;SDS011;4799;50.996;4.754;2023-06-10T01:55:55;9.57;;;8.60;;
8861;SDS011;4799;50.996;4.754;2023-06-10T01:58:21;10.00;;;9.03;;
8861;SDS011;4799;50.996;4.754;2023-06-10T02:00:47;9.77;;;8.97;;
8861;SDS011;4799;50.996;4.754;2023-06-10T02:03:12;9.83;;;9.00;;
8861;SDS011;4799;50.996;4.754;2023-06-10T02:05:38;10.43;;;9.40;;
8861;SDS011;4799;50.996;4.754;2023-06-10T02:08:04;9.40;;;8.70;;
8861;SDS011;4799;50.996;4.754;2023-06-10T02:10:30;9.37;;;8.67;;
8861;SDS011;4799;50.996;4.754;2023-06-10T02:12:56;9.57;;;8.77;;
8861;SDS011;4799;50.996;4.754;2023-06-10T02:15:22;10.03;;;9.03;;
8861;SDS011;4799;50.996;4.754;2023-06-10T02:17:47;9.80;;;8.90;;
8861;SDS011;4799;50.996;4.754;2023-06-10T02:20:14;9.57;;;8.67;;
8861;SDS011;4799;50.996;4.754;2023-06-10T02:22:40;10.23;;;9.37;;
8861;SDS011;4799;50.996;4.754;2023-06-10T02:25:06;10.23;;;9.33;;
8861;SDS011;4799;50.996;4.754;2023-06-10T02:27:32;9.83;;;8.83;;
8861;SDS011;4799;50.996;4.754;2023-06-10T02:29:58;10.07;;;9.27;;
8861;SDS011;4799;50.996;4.754;2023-06-10T02:32:24;9.70;;;9.00;;
8861;SDS011;4799;50.996;4.754;2023-06-10T02:34:50;9.83;;;9.00;;
8861;SDS011;4799;50.996;4.754;2023-06-10T02:37:16;10.10;;;9.20;;
8861;SDS011;4799;50.996;4.754;2023-06-10T02:39:42;9.73;;;8.93;;
8861;SDS011;4799;50.996;4.754;2023-06-10T02:42:08;10.63;;;9.77;;
8861;SDS011;4799;50.996;4.754;2023-06-10T02:44:35;9.67;;;8.87;;
8861;SDS011;4799;50.996;4.754;2023-06-10T02:47:01;9.93;;;9.20;;
8861;SDS011;4799;50.996;4.754;2023-06-10T02:49:27;10.00;;;9.30;;
8861;SDS011;4799;50.996;4.754;2023-06-10T02:51:53;10.23;;;9.37;;
8861;SDS011;4799;50.996;4.754;2023-06-10T02:54:19;10.97;;;9.87;;
8861;SDS011;4799;50.996;4.754;2023-06-10T02:56:45;10.83;;;9.87;;
8861;SDS011;4799;50.996;4.754;2023-06-10T02:59:13;10.40;;;9.60;;
8861;SDS011;4799;50.996;4.754;2023-06-10T03:01:39;10.03;;;9.17;;
8861;SDS011;4799;50.996;4.754;2023-06-10T03:04:06;11.97;;;10.10;;
8861;SDS011;4799;50.996;4.754;2023-06-10T03:06:32;10.57;;;9.67;;
8861;SDS011;4799;50.996;4.754;2023-06-10T03:09:02;10.67;;;9.73;;
8861;SDS011;4799;50.996;4.754;2023-06-10T03:11:30;10.40;;;9.47;;
8861;SDS011;4799;50.996;4.754;2023-06-10T03:13:56;10.30;;;9.43;;
8861;SDS011;4799;50.996;4.754;2023-06-10T03:16:22;11.00;;;10.10;;
8861;SDS011;4799;50.996;4.754;2023-06-10T03:18:50;10.83;;;9.93;;
8861;SDS011;4799;50.996;4.754;2023-06-10T03:21:16;11.53;;;10.50;;
8861;SDS011;4799;50.996;4.754;2023-06-10T03:23:42;11.00;;;10.10;;
8861;SDS011;4799;50.996;4.754;2023-06-10T03:26:07;11.33;;;10.33;;
8861;SDS011;4799;50.996;4.754;2023-06-10T03:28:35;11.37;;;10.30;;
8861;SDS011;4799;50.996;4.754;2023-06-10T03:31:01;11.10;;;10.20;;
8861;SDS011;4799;50.996;4.754;2023-06-10T03:33:27;11.03;;;10.13;;
8861;SDS011;4799;50.996;4.754;2023-06-10T03:35:52;11.60;;;10.60;;
8861;SDS011;4799;50.996;4.754;2023-06-10T03:38:18;11.17;;;10.17;;
8861;SDS011;4799;50.996;4.754;2023-06-10T03:40:44;11.00;;;10.13;;
8861;SDS011;4799;50.996;4.754;2023-06-10T03:43:10;11.20;;;10.30;;
8861;SDS011;4799;50.996;4.754;2023-06-10T03:45:36;11.73;;;10.77;;
8861;SDS011;4799;50.996;4.754;2023-06-10T03:48:01;10.77;;;9.73;;
8861;SDS011;4799;50.996;4.754;2023-06-10T03:50:28;11.13;;;10.30;;
8861;SDS011;4799;50.996;4.754;2023-06-10T03:52:54;10.93;;;10.03;;
8861;SDS011;4799;50.996;4.754;2023-06-10T03:55:20;11.10;;;10.20;;
8861;SDS011;4799;50.996;4.754;2023-06-10T03:57:47;11.23;;;10.37;;
8861;SDS011;4799;50.996;4.754;2023-06-10T04:00:14;11.17;;;10.27;;
8861;SDS011;4799;50.996;4.754;2023-06-10T04:02:42;10.83;;;9.93;;
8861;SDS011;4799;50.996;4.754;2023-06-10T04:05:11;10.80;;;9.80;;
8861;SDS011;4799;50.996;4.754;2023-06-10T04:07:37;10.33;;;9.50;;
8861;SDS011;4799;50.996;4.754;2023-06-10T04:10:06;10.87;;;9.97;;
8861;SDS011;4799;50.996;4.754;2023-06-10T04:12:32;10.37;;;9.57;;
8861;SDS011;4799;50.996;4.754;2023-06-10T04:14:58;10.60;;;9.70;;
8861;SDS011;4799;50.996;4.754;2023-06-10T04:17:24;10.90;;;10.10;;
8861;SDS011;4799;50.996;4.754;2023-06-10T04:19:51;11.17;;;10.17;;
8861;SDS011;4799;50.996;4.754;2023-06-10T04:22:17;10.93;;;10.00;;
8861;SDS011;4799;50.996;4.754;2023-06-10T04:24:43;10.60;;;9.70;;
8861;SDS011;4799;50.996;4.754;2023-06-10T04:27:09;11.50;;;10.37;;
8861;SDS011;4799;50.996;4.754;2023-06-10T04:29:35;10.50;;;9.70;;
8861;SDS011;4799;50.996;4.754;2023-06-10T04:32:01;10.57;;;9.67;;
8861;SDS011;4799;50.996;4.754;2023-06-10T04:34:27;11.50;;;10.57;;
8861;SDS011;4799;50.996;4.754;2023-06-10T04:36:53;10.83;;;9.83;;
8861;SDS011;4799;50.996;4.754;2023-06-10T04:39:19;11.00;;;10.00;;
8861;SDS011;4799;50.996;4.754;2023-06-10T04:41:45;11.30;;;10.40;;
8861;SDS011;4799;50.996;4.754;2023-06-10T04:44:11;11.10;;;10.20;;
8861;SDS011;4799;50.996;4.754;2023-06-10T04:46:37;10.77;;;9.80;;
8861;SDS011;4799;50.996;4.754;2023-06-10T04:49:03;10.73;;;9.73;;
8861;SDS011;4799;50.996;4.754;2023-06-10T04:51:30;10.97;;;10.07;;
8861;SDS011;4799;50.996;4.754;2023-06-10T04:53:57;10.93;;;10.07;;
8861;SDS011;4799;50.996;4.754;2023-06-10T04:56:23;11.90;;;10.70;;
8861;SDS011;4799;50.996;4.754;2023-06-10T04:58:49;10.87;;;9.97;;
8861;SDS011;4799;50.996;4.754;2023-06-10T05:01:15;11.03;;;10.13;;
8861;SDS011;4799;50.996;4.754;2023-06-10T05:03:41;11.13;;;10.30;;
8861;SDS011;4799;50.996;4.754;2023-06-10T05:06:06;11.10;;;10.13;;
8861;SDS011;4799;50.996;4.754;2023-06-10T05:08:33;10.70;;;9.90;;
8861;SDS011;4799;50.996;4.754;2023-06-10T05:10:58;11.00;;;9.93;;
8861;SDS011;4799;50.996;4.754;2023-06-10T05:13:24;10.80;;;9.90;;
8861;SDS011;4799;50.996;4.754;2023-06-10T05:15:50;10.87;;;10.07;;
8861;SDS011;4799;50.996;4.754;2023-06-10T05:18:15;11.43;;;10.43;;
8861;SDS011;4799;50.996;4.754;2023-06-10T05:20:41;11.17;;;10.27;;
8861;SDS011;4799;50.996;4.754;2023-06-10T05:23:07;11.70;;;10.70;;
8861;SDS011;4799;50.996;4.754;2023-06-10T05:25:33;10.40;;;9.60;;
8861;SDS011;4799;50.996;4.754;2023-06-10T05:27:59;12.03;;;10.67;;
8861;SDS011;4799;50.996;4.754;2023-06-10T05:30:24;11.20;;;10.30;;
8861;SDS011;4799;50.996;4.754;2023-06-10T05:32:51;11.00;;;10.03;;
8861;SDS011;4799;50.996;4.754;2023-06-10T05:35:21;11.57;;;10.63;;
8861;SDS011;4799;50.996;4.754;2023-06-10T05:37:47;10.93;;;10.03;;
8861;SDS011;4799;50.996;4.754;2023-06-10T05:40:13;11.30;;;10.20;;
8861;SDS011;4799;50.996;4.754;2023-06-10T05:42:39;10.73;;;9.77;;
8861;SDS011;4799;50.996;4.754;2023-06-10T05:45:05;10.63;;;9.73;;
8861;SDS011;4799;50.996;4.754;2023-06-10T05:47:32;10.37;;;9.57;;
8861;SDS011;4799;50.996;4.754;2023-06-10T05:49:57;9.80;;;8.90;;
8861;SDS011;4799;50.996;4.754;2023-06-10T05:52:23;10.27;;;9.27;;
8861;SDS011;4799;50.996;4.754;2023-06-10T05:54:49;10.07;;;9.27;;
8861;SDS011;4799;50.996;4.754;2023-06-10T05:57:15;10.17;;;9.10;;
8861;SDS011;4799;50.996;4.754;2023-06-10T05:59:41;10.00;;;9.10;;
8861;SDS011;4799;50.996;4.754;2023-06-10T06:02:06;10.23;;;9.43;;
8861;SDS011;4799;50.996;4.754;2023-06-10T06:04:33;9.90;;;9.10;;
8861;SDS011;4799;50.996;4.754;2023-06-10T06:06:59;10.40;;;9.50;;
8861;SDS011;4799;50.996;4.754;2023-06-10T06:09:24;9.70;;;9.00;;
8861;SDS011;4799;50.996;4.754;2023-06-10T06:11:50;9.63;;;8.73;;
8861;SDS011;4799;50.996;4.754;2023-06-10T06:14:16;9.87;;;9.07;;
8861;SDS011;4799;50.996;4.754;2023-06-10T06:16:42;9.93;;;9.13;;
8861;SDS011;4799;50.996;4.754;2023-06-10T06:19:08;11.00;;;9.10;;
8861;SDS011;4799;50.996;4.754;2023-06-10T06:21:34;9.60;;;8.87;;
8861;SDS011;4799;50.996;4.754;2023-06-10T06:24:00;10.73;;;8.97;;
8861;SDS011;4799;50.996;4.754;2023-06-10T06:26:26;9.60;;;8.80;;
8861;SDS011;4799;50.996;4.754;2023-06-10T06:28:52;10.23;;;9.23;;
8861;SDS011;4799;50.996;4.754;2023-06-10T06:31:17;9.67;;;8.87;;
8861;SDS011;4799;50.996;4.754;2023-06-10T06:33:43;9.10;;;8.30;;
8861;SDS011;4799;50.996;4.754;2023-06-10T06:36:09;10.33;;;8.90;;
8861;SDS011;4799;50.996;4.754;2023-06-10T06:38:35;9.63;;;8.83;;
8861;SDS011;4799;50.996;4.754;2023-06-10T06:41:00;9.30;;;8.50;;
8861;SDS011;4799;50.996;4.754;2023-06-10T06:43:28;10.10;;;8.03;;
8861;SDS011;4799;50.996;4.754;2023-06-10T06:45:56;9.73;;;8.83;;
8861;SDS011;4799;50.996;4.754;2023-06-10T06:48:23;9.23;;;8.20;;
8861;SDS011;4799;50.996;4.754;2023-06-10T06:50:49;9.40;;;8.47;;
8861;SDS011;4799;50.996;4.754;2023-06-10T06:53:15;8.63;;;7.80;;
8861;SDS011;4799;50.996;4.754;2023-06-10T06:55:40;8.87;;;8.17;;
8861;SDS011;4799;50.996;4.754;2023-06-10T06:58:06;9.10;;;8.30;;
8861;SDS011;4799;50.996;4.754;2023-06-10T07:00:32;9.27;;;8.47;;
8861;SDS011;4799;50.996;4.754;2023-06-10T07:02:58;13.13;;;8.50;;
8861;SDS011;4799;50.996;4.754;2023-06-10T07:05:24;9.20;;;8.40;;
8861;SDS011;4799;50.996;4.754;2023-06-10T07:07:52;8.47;;;7.77;;
8861;SDS011;4799;50.996;4.754;2023-06-10T07:10:23;8.93;;;8.07;;
8861;SDS011;4799;50.996;4.754;2023-06-10T07:12:50;8.30;;;7.50;;
8861;SDS011;4799;50.996;4.754;2023-06-10T07:15:16;9.10;;;8.30;;
8861;SDS011;4799;50.996;4.754;2023-06-10T07:17:43;9.20;;;8.37;;
8861;SDS011;4799;50.996;4.754;2023-06-10T07:20:09;8.90;;;8.07;;
8861;SDS011;4799;50.996;4.754;2023-06-10T07:22:35;8.67;;;7.97;;
8861;SDS011;4799;50.996;4.754;2023-06-10T07:25:00;9.17;;;8.00;;
8861;SDS011;4799;50.996;4.754;2023-06-10T07:27:26;8.87;;;8.03;;
8861;SDS011;4799;50.996;4.754;2023-06-10T07:29:52;8.63;;;7.83;;
8861;SDS011;4799;50.996;4.754;2023-06-10T07:32:18;8.40;;;7.63;;
8861;SDS011;4799;50.996;4.754;2023-06-10T07:34:47;8.83;;;8.03;;
8861;SDS011;4799;50.996;4.754;2023-06-10T07:37:13;8.57;;;7.77;;
8861;SDS011;4799;50.996;4.754;2023-06-10T07:39:39;8.50;;;7.73;;
8861;SDS011;4799;50.996;4.754;2023-06-10T07:42:05;8.33;;;7.63;;
8861;SDS011;4799;50.996;4.754;2023-06-10T07:44:31;8.90;;;7.80;;
8861;SDS011;4799;50.996;4.754;2023-06-10T07:46:57;8.87;;;7.93;;
8861;SDS011;4799;50.996;4.754;2023-06-10T07:49:23;8.33;;;7.53;;
8861;SDS011;4799;50.996;4.754;2023-06-10T07:51:50;8.17;;;7.53;;
8861;SDS011;4799;50.996;4.754;2023-06-10T07:54:16;8.60;;;7.70;;
8861;SDS011;4799;50.996;4.754;2023-06-10T07:56:41;8.40;;;7.80;;
8861;SDS011;4799;50.996;4.754;2023-06-10T07:59:07;7.60;;;7.00;;
8861;SDS011;4799;50.996;4.754;2023-06-10T08:01:33;7.80;;;7.20;;
8861;SDS011;4799;50.996;4.754;2023-06-10T08:04:00;8.40;;;7.53;;
8861;SDS011;4799;50.996;4.754;2023-06-10T08:06:26;8.00;;;7.30;;
8861;SDS011;4799;50.996;4.754;2023-06-10T08:08:52;7.33;;;6.83;;
8861;SDS011;4799;50.996;4.754;2023-06-10T08:11:18;8.33;;;7.63;;
8861;SDS011;4799;50.996;4.754;2023-06-10T08:13:44;7.77;;;7.07;;
8861;SDS011;4799;50.996;4.754;2023-06-10T08:16:09;8.43;;;7.67;;
8861;SDS011;4799;50.996;4.754;2023-06-10T08:18:35;7.77;;;7.07;;
8861;SDS011;4799;50.996;4.754;2023-06-10T08:21:01;7.73;;;6.97;;
8861;SDS011;4799;50.996;4.754;2023-06-10T08:23:27;7.90;;;7.17;;
8861;SDS011;4799;50.996;4.754;2023-06-10T08:25:52;7.90;;;7.30;;
8861;SDS011;4799;50.996;4.754;2023-06-10T08:28:18;8.07;;;7.27;;
8861;SDS011;4799;50.996;4.754;2023-06-10T08:30:44;7.80;;;7.20;;
8861;SDS011;4799;50.996;4.754;2023-06-10T08:33:10;8.03;;;7.33;;
8861;SDS011;4799;50.996;4.754;2023-06-10T08:35:36;7.90;;;7.20;;
8861;SDS011;4799;50.996;4.754;2023-06-10T08:38:02;7.77;;;7.03;;
8861;SDS011;4799;50.996;4.754;2023-06-10T08:40:27;9.27;;;7.63;;
8861;SDS011;4799;50.996;4.754;2023-06-10T08:43:06;7.90;;;7.10;;
8861;SDS011;4799;50.996;4.754;2023-06-10T08:45:35;7.93;;;7.23;;
8861;SDS011;4799;50.996;4.754;2023-06-10T08:48:02;8.53;;;7.83;;
8861;SDS011;4799;50.996;4.754;2023-06-10T08:50:33;8.43;;;7.63;;
8861;SDS011;4799;50.996;4.754;2023-06-10T08:53:01;7.90;;;7.20;;
8861;SDS011;4799;50.996;4.754;2023-06-10T08:55:33;8.20;;;7.40;;
8861;SDS011;4799;50.996;4.754;2023-06-10T08:58:01;8.20;;;7.27;;
8861;SDS011;4799;50.996;4.754;2023-06-10T09:00:28;8.23;;;7.50;;
8861;SDS011;4799;50.996;4.754;2023-06-10T09:02:55;8.00;;;7.30;;
8861;SDS011;4799;50.996;4.754;2023-06-10T09:05:21;8.23;;;7.53;;
8861;SDS011;4799;50.996;4.754;2023-06-10T09:07:48;8.13;;;7.43;;
8861;SDS011;4799;50.996;4.754;2023-06-10T09:10:14;8.10;;;7.35;;
8861;SDS011;4799;50.996;4.754;2023-06-10T09:12:40;7.88;;;7.18;;
8861;SDS011;4799;50.996;4.754;2023-06-10T09:15:06;8.50;;;7.80;;
8861;SDS011;4799;50.996;4.754;2023-06-10T09:17:33;7.70;;;7.10;;
8861;SDS011;4799;50.996;4.754;2023-06-10T09:19:59;7.55;;;6.85;;
8861;SDS011;4799;50.996;4.754;2023-06-10T09:22:25;8.20;;;7.40;;
8861;SDS011;4799;50.996;4.754;2023-06-10T09:24:52;7.78;;;7.10;;
8861;SDS011;4799;50.996;4.754;2023-06-10T09:27:44;7.65;;;6.95;;
8861;SDS011;4799;50.996;4.754;2023-06-10T09:32:54;7.07;;;6.47;;
8861;SDS011;4799;50.996;4.754;2023-06-10T09:35:22;7.82;;;7.03;;
8861;SDS011;4799;50.996;4.754;2023-06-10T09:37:50;7.57;;;6.82;;
8861;SDS011;4799;50.996;4.754;2023-06-10T09:40:17;7.75;;;7.15;;
8861;SDS011;4799;50.996;4.754;2023-06-10T09:42:43;8.00;;;7.20;;
8861;SDS011;4799;50.996;4.754;2023-06-10T09:45:09;9.55;;;7.18;;
8861;SDS011;4799;50.996;4.754;2023-06-10T09:47:34;7.97;;;6.97;;
8861;SDS011;4799;50.996;4.754;2023-06-10T09:50:00;7.60;;;6.97;;
8861;SDS011;4799;50.996;4.754;2023-06-10T09:52:27;9.18;;;7.20;;
8861;SDS011;4799;50.996;4.754;2023-06-10T09:54:59;7.25;;;6.75;;
8861;SDS011;4799;50.996;4.754;2023-06-10T09:57:26;8.15;;;7.32;;
8861;SDS011;4799;50.996;4.754;2023-06-10T09:59:58;9.63;;;7.28;;
8861;SDS011;4799;50.996;4.754;2023-06-10T10:02:24;7.43;;;6.75;;
8861;SDS011;4799;50.996;4.754;2023-06-10T10:04:50;7.65;;;6.50;;
8861;SDS011;4799;50.996;4.754;2023-06-10T10:07:15;6.68;;;6.18;;
8861;SDS011;4799;50.996;4.754;2023-06-10T10:09:42;7.43;;;6.72;;
8861;SDS011;4799;50.996;4.754;2023-06-10T10:12:14;8.70;;;6.78;;
8861;SDS011;4799;50.996;4.754;2023-06-10T10:14:43;7.15;;;6.50;;
8861;SDS011;4799;50.996;4.754;2023-06-10T10:17:13;8.07;;;7.28;;
8861;SDS011;4799;50.996;4.754;2023-06-10T10:19:43;7.72;;;6.88;;
8861;SDS011;4799;50.996;4.754;2023-06-10T10:22:26;7.22;;;6.55;;
8861;SDS011;4799;50.996;4.754;2023-06-10T10:24:59;7.47;;;6.70;;
8861;SDS011;4799;50.996;4.754;2023-06-10T10:27:33;7.35;;;6.57;;
8861;SDS011;4799;50.996;4.754;2023-06-10T10:30:04;7.07;;;6.43;;
8861;SDS011;4799;50.996;4.754;2023-06-10T10:32:51;6.97;;;6.38;;
8861;SDS011;4799;50.996;4.754;2023-06-10T10:35:19;7.07;;;6.47;;
8861;SDS011;4799;50.996;4.754;2023-06-10T10:37:48;7.05;;;6.35;;
8861;SDS011;4799;50.996;4.754;2023-06-10T10:40:14;6.75;;;6.25;;
8861;SDS011;4799;50.996;4.754;2023-06-10T10:42:41;7.45;;;6.85;;
8861;SDS011;4799;50.996;4.754;2023-06-10T10:45:08;8.52;;;6.75;;
8861;SDS011;4799;50.996;4.754;2023-06-10T10:47:34;6.90;;;6.20;;
8861;SDS011;4799;50.996;4.754;2023-06-10T10:50:03;7.00;;;6.32;;
8861;SDS011;4799;50.996;4.754;2023-06-10T10:55:21;7.43;;;6.70;;
8861;SDS011;4799;50.996;4.754;2023-06-10T10:58:11;7.15;;;6.45;;
8861;SDS011;4799;50.996;4.754;2023-06-10T11:00:44;7.18;;;6.47;;
8861;SDS011;4799;50.996;4.754;2023-06-10T11:03:14;6.93;;;6.32;;
8861;SDS011;4799;50.996;4.754;2023-06-10T11:05:42;7.50;;;6.45;;
8861;SDS011;4799;50.996;4.754;2023-06-10T11:08:13;6.88;;;6.28;;
8861;SDS011;4799;50.996;4.754;2023-06-10T11:10:51;6.63;;;6.13;;
8861;SDS011;4799;50.996;4.754;2023-06-10T11:13:21;8.50;;;6.60;;
8861;SDS011;4799;50.996;4.754;2023-06-10T11:15:50;7.63;;;6.35;;
8861;SDS011;4799;50.996;4.754;2023-06-10T11:18:20;7.05;;;6.40;;
8861;SDS011;4799;50.996;4.754;2023-06-10T11:28:40;8.13;;;6.25;;
8861;SDS011;4799;50.996;4.754;2023-06-10T11:33:53;8.40;;;6.85;;
8861;SDS011;4799;50.996;4.754;2023-06-10T11:36:20;7.18;;;6.53;;
8861;SDS011;4799;50.996;4.754;2023-06-10T11:38:47;7.13;;;6.50;;
8861;SDS011;4799;50.996;4.754;2023-06-10T11:41:13;6.55;;;6.05;;
8861;SDS011;4799;50.996;4.754;2023-06-10T11:43:43;7.13;;;6.45;;
8861;SDS011;4799;50.996;4.754;2023-06-10T11:46:10;6.70;;;6.10;;
8861;SDS011;4799;50.996;4.754;2023-06-10T11:48:37;6.63;;;6.03;;
8861;SDS011;4799;50.996;4.754;2023-06-10T11:51:06;6.45;;;5.90;;
8861;SDS011;4799;50.996;4.754;2023-06-10T11:53:33;6.82;;;6.20;;
8861;SDS011;4799;50.996;4.754;2023-06-10T11:55:58;6.78;;;6.18;;
8861;SDS011;4799;50.996;4.754;2023-06-10T11:58:24;8.25;;;6.10;;
8861;SDS011;4799;50.996;4.754;2023-06-10T12:00:54;6.82;;;6.22;;
8861;SDS011;4799;50.996;4.754;2023-06-10T12:03:23;5.90;;;5.40;;
8861;SDS011;4799;50.996;4.754;2023-06-10T12:06:00;6.50;;;6.00;;
8861;SDS011;4799;50.996;4.754;2023-06-10T12:08:27;6.25;;;5.72;;
8861;SDS011;4799;50.996;4.754;2023-06-10T12:10:53;6.20;;;5.70;;
8861;SDS011;4799;50.996;4.754;2023-06-10T12:13:20;6.20;;;5.72;;
8861;SDS011;4799;50.996;4.754;2023-06-10T12:15:46;6.35;;;5.68;;
8861;SDS011;4799;50.996;4.754;2023-06-10T12:18:19;6.40;;;5.80;;
8861;SDS011;4799;50.996;4.754;2023-06-10T12:20:46;7.60;;;5.68;;
8861;SDS011;4799;50.996;4.754;2023-06-10T12:23:13;6.90;;;6.20;;
8861;SDS011;4799;50.996;4.754;2023-06-10T12:25:49;7.25;;;6.35;;
8861;SDS011;4799;50.996;4.754;2023-06-10T12:28:17;7.53;;;6.13;;
8861;SDS011;4799;50.996;4.754;2023-06-10T12:30:45;6.30;;;5.80;;
8861;SDS011;4799;50.996;4.754;2023-06-10T12:36:02;6.05;;;5.60;;
8861;SDS011;4799;50.996;4.754;2023-06-10T12:38:27;7.60;;;6.28;;
8861;SDS011;4799;50.996;4.754;2023-06-10T12:40:53;6.35;;;5.55;;
8861;SDS011;4799;50.996;4.754;2023-06-10T12:43:25;6.32;;;5.72;;
8861;SDS011;4799;50.996;4.754;2023-06-10T12:45:51;8.23;;;6.13;;
8861;SDS011;4799;50.996;4.754;2023-06-10T12:48:20;6.90;;;6.22;;
8861;SDS011;4799;50.996;4.754;2023-06-10T12:50:54;6.70;;;6.15;;
8861;SDS011;4799;50.996;4.754;2023-06-10T12:53:21;6.68;;;6.10;;
8861;SDS011;4799;50.996;4.754;2023-06-10T12:55:53;6.38;;;5.78;;
8861;SDS011;4799;50.996;4.754;2023-06-10T12:58:19;6.45;;;5.95;;
8861;SDS011;4799;50.996;4.754;2023-06-10T13:00:47;7.00;;;6.32;;
8861;SDS011;4799;50.996;4.754;2023-06-10T13:03:14;6.85;;;6.25;;
8861;SDS011;4799;50.996;4.754;2023-06-10T13:05:40;7.22;;;6.53;;
8861;SDS011;4799;50.996;4.754;2023-06-10T13:08:06;6.50;;;5.90;;
8861;SDS011;4799;50.996;4.754;2023-06-10T13:10:33;6.70;;;6.10;;
8861;SDS011;4799;50.996;4.754;2023-06-10T13:13:00;6.43;;;5.88;;
8861;SDS011;4799;50.996;4.754;2023-06-10T13:15:26;7.15;;;6.45;;
8861;SDS011;4799;50.996;4.754;2023-06-10T13:17:52;6.72;;;6.05;;
8861;SDS011;4799;50.996;4.754;2023-06-10T13:20:18;6.50;;;5.95;;
8861;SDS011;4799;50.996;4.754;2023-06-10T13:22:44;6.55;;;6.05;;
8861;SDS011;4799;50.996;4.754;2023-06-10T13:25:10;6.10;;;5.68;;
8861;SDS011;4799;50.996;4.754;2023-06-10T13:27:36;6.43;;;5.93;;
8861;SDS011;4799;50.996;4.754;2023-06-10T13:30:05;6.85;;;6.25;;
8861;SDS011;4799;50.996;4.754;2023-06-10T13:32:32;6.22;;;5.63;;
8861;SDS011;4799;50.996;4.754;2023-06-10T13:34:58;7.47;;;6.72;;
8861;SDS011;4799;50.996;4.754;2023-06-10T13:37:23;6.57;;;6.07;;
8861;SDS011;4799;50.996;4.754;2023-06-10T13:39:49;6.35;;;5.85;;
8861;SDS011;4799;50.996;4.754;2023-06-10T13:42:16;7.05;;;5.97;;
8861;SDS011;4799;50.996;4.754;2023-06-10T13:44:43;7.18;;;5.90;;
8861;SDS011;4799;50.996;4.754;2023-06-10T13:47:08;6.63;;;6.07;;
8861;SDS011;4799;50.996;4.754;2023-06-10T13:49:34;6.22;;;5.57;;
8861;SDS011;4799;50.996;4.754;2023-06-10T13:52:01;7.05;;;5.90;;
8861;SDS011;4799;50.996;4.754;2023-06-10T13:54:27;6.40;;;5.90;;
8861;SDS011;4799;50.996;4.754;2023-06-10T13:56:53;6.28;;;5.68;;
8861;SDS011;4799;50.996;4.754;2023-06-10T13:59:19;7.15;;;6.38;;
8861;SDS011;4799;50.996;4.754;2023-06-10T14:01:45;7.07;;;5.68;;
8861;SDS011;4799;50.996;4.754;2023-06-10T14:04:11;6.35;;;5.78;;
8861;SDS011;4799;50.996;4.754;2023-06-10T14:06:37;6.57;;;5.82;;
8861;SDS011;4799;50.996;4.754;2023-06-10T14:09:03;6.40;;;5.90;;
8861;SDS011;4799;50.996;4.754;2023-06-10T14:11:29;6.30;;;5.70;;
8861;SDS011;4799;50.996;4.754;2023-06-10T14:13:55;6.40;;;5.70;;
8861;SDS011;4799;50.996;4.754;2023-06-10T14:16:24;7.82;;;5.60;;
8861;SDS011;4799;50.996;4.754;2023-06-10T14:18:50;6.43;;;5.78;;
8861;SDS011;4799;50.996;4.754;2023-06-10T14:21:16;7.85;;;5.68;;
8861;SDS011;4799;50.996;4.754;2023-06-10T14:23:42;6.60;;;6.00;;
8861;SDS011;4799;50.996;4.754;2023-06-10T14:26:08;6.03;;;5.53;;
8861;SDS011;4799;50.996;4.754;2023-06-10T14:28:35;5.68;;;5.28;;
8861;SDS011;4799;50.996;4.754;2023-06-10T14:31:00;6.03;;;5.38;;
8861;SDS011;4799;50.996;4.754;2023-06-10T14:33:26;5.85;;;5.25;;
8861;SDS011;4799;50.996;4.754;2023-06-10T14:35:52;5.93;;;5.47;;
8861;SDS011;4799;50.996;4.754;2023-06-10T14:38:18;5.93;;;5.38;;
8861;SDS011;4799;50.996;4.754;2023-06-10T14:40:44;6.63;;;6.03;;
8861;SDS011;4799;50.996;4.754;2023-06-10T14:43:09;6.00;;;5.40;;
8861;SDS011;4799;50.996;4.754;2023-06-10T14:45:36;6.00;;;5.50;;
8861;SDS011;4799;50.996;4.754;2023-06-10T14:48:02;5.82;;;5.32;;
8861;SDS011;4799;50.996;4.754;2023-06-10T14:50:29;5.88;;;5.35;;
8861;SDS011;4799;50.996;4.754;2023-06-10T14:52:55;5.63;;;5.22;;
8861;SDS011;4799;50.996;4.754;2023-06-10T14:55:20;5.78;;;5.28;;
8861;SDS011;4799;50.996;4.754;2023-06-10T14:57:48;6.50;;;5.85;;
8861;SDS011;4799;50.996;4.754;2023-06-10T15:00:14;6.30;;;5.60;;
8861;SDS011;4799;50.996;4.754;2023-06-10T15:02:42;6.88;;;5.30;;
8861;SDS011;4799;50.996;4.754;2023-06-10T15:05:08;5.93;;;5.30;;
8861;SDS011;4799;50.996;4.754;2023-06-10T15:07:34;5.90;;;5.32;;
8861;SDS011;4799;50.996;4.754;2023-06-10T15:09:59;6.82;;;5.30;;
8861;SDS011;4799;50.996;4.754;2023-06-10T15:12:25;6.03;;;5.43;;
8861;SDS011;4799;50.996;4.754;2023-06-10T15:14:52;5.20;;;4.80;;
8861;SDS011;4799;50.996;4.754;2023-06-10T15:17:18;5.60;;;5.10;;
8861;SDS011;4799;50.996;4.754;2023-06-10T15:19:44;6.53;;;5.28;;
8861;SDS011;4799;50.996;4.754;2023-06-10T15:22:10;5.65;;;5.13;;
8861;SDS011;4799;50.996;4.754;2023-06-10T15:24:38;5.90;;;5.40;;
8861;SDS011;4799;50.996;4.754;2023-06-10T15:27:03;6.03;;;5.53;;
8861;SDS011;4799;50.996;4.754;2023-06-10T15:29:30;6.13;;;5.30;;
8861;SDS011;4799;50.996;4.754;2023-06-10T15:31:56;6.07;;;5.50;;
8861;SDS011;4799;50.996;4.754;2023-06-10T15:34:22;5.88;;;5.47;;